sensor_id;sensor_type;location;lat;lon;timestamp;pressure;altitude;pressure_sealevel;temperature;humidity
24336;BME280;33098;52.400;16.880;2023-03-18T00:01:26;100684.99;;;6.57;54.54
24336;BME280;33098;52.400;16.880;2023-03-18T00:03:53;100688.95;;;6.55;54.62
24336;BME280;33098;52.400;16.880;2023-03-18T00:06:19;100686.64;;;6.50;54.62
24336;BME280;33098;52.400;16.880;2023-03-18T00:08:47;100687.63;;;6.45;54.70
24336;BME280;33098;52.400;16.880;2023-03-18T00:11:15;100687.63;;;6.45;54.74
24336;BME280;33098;52.400;16.880;2023-03-18T00:13:42;100683.98;;;6.44;54.82
24336;BME280;33098;52.400;16.880;2023-03-18T00:16:09;100682.62;;;6.46;54.93
24336;BME280;33098;52.400;16.880;2023-03-18T00:18:37;100678.91;;;6.43;54.78
24336;BME280;33098;52.400;16.880;2023-03-18T00:21:04;100678.71;;;6.37;54.71
24336;BME280;33098;52.400;16.880;2023-03-18T00:23:32;100679.25;;;6.33;54.83
24336;BME280;33098;52.400;16.880;2023-03-18T00:25:59;100678.56;;;6.33;54.95
24336;BME280;33098;52.400;16.880;2023-03-18T00:28:26;100677.40;;;6.35;54.93
24336;BME280;33098;52.400;16.880;2023-03-18T00:30:53;100675.11;;;6.35;54.94
24336;BME280;33098;52.400;16.880;2023-03-18T00:33:21;100667.52;;;6.29;54.97
24336;BME280;33098;52.400;16.880;2023-03-18T00:35:47;100664.86;;;6.23;54.90
24336;BME280;33098;52.400;16.880;2023-03-18T00:38:14;100663.09;;;6.24;55.08
24336;BME280;33098;52.400;16.880;2023-03-18T00:40:47;100660.20;;;6.25;55.12
24336;BME280;33098;52.400;16.880;2023-03-18T00:43:20;100655.39;;;6.26;55.13
24336;BME280;33098;52.400;16.880;2023-03-18T00:45:48;100658.04;;;6.26;55.27
24336;BME280;33098;52.400;16.880;2023-03-18T00:48:16;100657.67;;;6.26;55.25
24336;BME280;33098;52.400;16.880;2023-03-18T00:50:43;100654.95;;;6.21;55.30
24336;BME280;33098;52.400;16.880;2023-03-18T00:53:10;100650.56;;;6.18;55.30
24336;BME280;33098;52.400;16.880;2023-03-18T00:55:36;100653.61;;;6.14;55.31
24336;BME280;33098;52.400;16.880;2023-03-18T00:58:03;100651.50;;;6.13;55.37
24336;BME280;33098;52.400;16.880;2023-03-18T01:00:29;100648.95;;;6.15;55.54
24336;BME280;33098;52.400;16.880;2023-03-18T01:02:56;100643.38;;;6.17;55.58
24336;BME280;33098;52.400;16.880;2023-03-18T01:05:22;100641.91;;;6.15;55.40
24336;BME280;33098;52.400;16.880;2023-03-18T01:07:49;100637.92;;;6.11;55.38
24336;BME280;33098;52.400;16.880;2023-03-18T01:10:16;100638.10;;;6.11;55.50
24336;BME280;33098;52.400;16.880;2023-03-18T01:12:43;100633.95;;;6.06;55.48
24336;BME280;33098;52.400;16.880;2023-03-18T01:15:13;100637.19;;;6.01;55.56
24336;BME280;33098;52.400;16.880;2023-03-18T01:17:39;100632.95;;;6.01;55.57
24336;BME280;33098;52.400;16.880;2023-03-18T01:20:06;100632.09;;;6.04;55.46
24336;BME280;33098;52.400;16.880;2023-03-18T01:22:32;100634.36;;;6.02;55.56
24336;BME280;33098;52.400;16.880;2023-03-18T01:24:59;100628.92;;;5.98;55.66
24336;BME280;33098;52.400;16.880;2023-03-18T01:27:31;100634.29;;;5.93;55.55
24336;BME280;33098;52.400;16.880;2023-03-18T01:30:00;100634.91;;;5.91;55.75
24336;BME280;33098;52.400;16.880;2023-03-18T01:32:27;100635.67;;;5.90;55.69
24336;BME280;33098;52.400;16.880;2023-03-18T01:34:54;100636.52;;;5.91;55.81
24336;BME280;33098;52.400;16.880;2023-03-18T01:37:20;100636.42;;;5.93;55.72
24336;BME280;33098;52.400;16.880;2023-03-18T01:39:49;100634.30;;;5.96;55.70
24336;BME280;33098;52.400;16.880;2023-03-18T01:42:20;100631.84;;;5.93;55.73
24336;BME280;33098;52.400;16.880;2023-03-18T01:44:47;100634.80;;;5.90;55.74
24336;BME280;33098;52.400;16.880;2023-03-18T01:47:14;100633.10;;;5.86;55.74
24336;BME280;33098;52.400;16.880;2023-03-18T01:49:49;100634.58;;;5.85;55.93
24336;BME280;33098;52.400;16.880;2023-03-18T01:52:22;100635.36;;;5.83;55.91
24336;BME280;33098;52.400;16.880;2023-03-18T01:54:51;100628.36;;;5.82;55.91
24336;BME280;33098;52.400;16.880;2023-03-18T01:57:20;100628.85;;;5.83;56.03
24336;BME280;33098;52.400;16.880;2023-03-18T01:59:48;100630.33;;;5.82;56.21
24336;BME280;33098;52.400;16.880;2023-03-18T02:02:16;100629.88;;;5.78;56.11
24336;BME280;33098;52.400;16.880;2023-03-18T02:04:44;100628.74;;;5.76;56.23
24336;BME280;33098;52.400;16.880;2023-03-18T02:07:14;100627.58;;;5.71;56.14
24336;BME280;33098;52.400;16.880;2023-03-18T02:09:40;100635.44;;;5.66;56.15
24336;BME280;33098;52.400;16.880;2023-03-18T02:12:07;100634.36;;;5.66;56.26
24336;BME280;33098;52.400;16.880;2023-03-18T02:14:34;100635.94;;;5.66;56.21
24336;BME280;33098;52.400;16.880;2023-03-18T02:17:07;100637.06;;;5.68;56.25
24336;BME280;33098;52.400;16.880;2023-03-18T02:19:44;100633.15;;;5.69;56.30
24336;BME280;33098;52.400;16.880;2023-03-18T02:24:58;100633.54;;;5.71;56.23
24336;BME280;33098;52.400;16.880;2023-03-18T02:27:27;100636.79;;;5.73;56.14
24336;BME280;33098;52.400;16.880;2023-03-18T02:29:56;100633.54;;;5.71;56.11
24336;BME280;33098;52.400;16.880;2023-03-18T02:32:29;100630.71;;;5.65;56.13
24336;BME280;33098;52.400;16.880;2023-03-18T02:34:58;100627.66;;;5.60;56.14
24336;BME280;33098;52.400;16.880;2023-03-18T02:37:27;100626.80;;;5.56;56.24
24336;BME280;33098;52.400;16.880;2023-03-18T02:39:54;100629.42;;;5.57;56.36
24336;BME280;33098;52.400;16.880;2023-03-18T02:42:27;100623.40;;;5.57;56.44
24336;BME280;33098;52.400;16.880;2023-03-18T02:44:54;100611.98;;;5.50;56.29
24336;BME280;33098;52.400;16.880;2023-03-18T02:47:44;100613.54;;;5.48;56.44
24336;BME280;33098;52.400;16.880;2023-03-18T02:50:12;100616.64;;;5.46;56.35
24336;BME280;33098;52.400;16.880;2023-03-18T02:52:39;100612.50;;;5.44;56.54
24336;BME280;33098;52.400;16.880;2023-03-18T02:55:06;100619.00;;;5.44;56.46
24336;BME280;33098;52.400;16.880;2023-03-18T02:57:34;100617.80;;;5.43;56.36
24336;BME280;33098;52.400;16.880;2023-03-18T03:00:01;100622.10;;;5.43;56.48
24336;BME280;33098;52.400;16.880;2023-03-18T03:02:28;100625.63;;;5.43;56.33
24336;BME280;33098;52.400;16.880;2023-03-18T03:04:55;100625.75;;;5.43;56.58
24336;BME280;33098;52.400;16.880;2023-03-18T03:07:24;100625.19;;;5.47;56.65
24336;BME280;33098;52.400;16.880;2023-03-18T03:09:52;100624.84;;;5.47;56.51
24336;BME280;33098;52.400;16.880;2023-03-18T03:12:18;100622.77;;;5.39;56.46
24336;BME280;33098;52.400;16.880;2023-03-18T03:14:49;100625.84;;;5.38;56.56
24336;BME280;33098;52.400;16.880;2023-03-18T03:17:16;100624.48;;;5.37;56.72
24336;BME280;33098;52.400;16.880;2023-03-18T03:19:43;100624.05;;;5.35;56.45
24336;BME280;33098;52.400;16.880;2023-03-18T03:22:11;100626.58;;;5.37;56.66
24336;BME280;33098;52.400;16.880;2023-03-18T03:24:37;100630.33;;;5.36;56.63
24336;BME280;33098;52.400;16.880;2023-03-18T03:27:05;100635.10;;;5.36;56.76
24336;BME280;33098;52.400;16.880;2023-03-18T03:29:33;100646.14;;;5.37;56.67
24336;BME280;33098;52.400;16.880;2023-03-18T03:32:00;100650.59;;;5.36;56.64
24336;BME280;33098;52.400;16.880;2023-03-18T03:34:27;100648.06;;;5.34;56.69
24336;BME280;33098;52.400;16.880;2023-03-18T03:36:53;100647.10;;;5.36;56.69
24336;BME280;33098;52.400;16.880;2023-03-18T03:39:20;100642.90;;;5.38;56.73
24336;BME280;33098;52.400;16.880;2023-03-18T03:41:46;100638.71;;;5.41;56.80
24336;BME280;33098;52.400;16.880;2023-03-18T03:44:15;100641.10;;;5.43;56.72
24336;BME280;33098;52.400;16.880;2023-03-18T03:46:42;100641.94;;;5.43;56.78
24336;BME280;33098;52.400;16.880;2023-03-18T03:49:08;100647.61;;;5.43;56.57
24336;BME280;33098;52.400;16.880;2023-03-18T03:51:35;100647.92;;;5.39;56.73
24336;BME280;33098;52.400;16.880;2023-03-18T03:54:02;100648.62;;;5.40;56.67
24336;BME280;33098;52.400;16.880;2023-03-18T03:56:29;100647.20;;;5.37;56.68
24336;BME280;33098;52.400;16.880;2023-03-18T03:58:56;100645.98;;;5.36;56.65
24336;BME280;33098;52.400;16.880;2023-03-18T04:01:24;100642.11;;;5.36;56.56
24336;BME280;33098;52.400;16.880;2023-03-18T04:03:53;100639.85;;;5.33;56.60
24336;BME280;33098;52.400;16.880;2023-03-18T04:06:20;100636.88;;;5.29;56.64
24336;BME280;33098;52.400;16.880;2023-03-18T04:08:54;100638.39;;;5.31;56.68
24336;BME280;33098;52.400;16.880;2023-03-18T04:11:20;100639.88;;;5.29;56.68
24336;BME280;33098;52.400;16.880;2023-03-18T04:13:47;100645.70;;;5.29;56.74
24336;BME280;33098;52.400;16.880;2023-03-18T04:16:14;100641.41;;;5.30;56.78
24336;BME280;33098;52.400;16.880;2023-03-18T04:18:42;100639.66;;;5.33;56.77
24336;BME280;33098;52.400;16.880;2023-03-18T04:21:09;100637.03;;;5.36;56.71
24336;BME280;33098;52.400;16.880;2023-03-18T04:23:39;100633.53;;;5.36;56.74
24336;BME280;33098;52.400;16.880;2023-03-18T04:26:06;100635.30;;;5.32;56.67
24336;BME280;33098;52.400;16.880;2023-03-18T04:28:32;100634.27;;;5.35;56.90
24336;BME280;33098;52.400;16.880;2023-03-18T04:31:00;100635.08;;;5.36;56.74
24336;BME280;33098;52.400;16.880;2023-03-18T04:33:26;100633.54;;;5.35;56.73
24336;BME280;33098;52.400;16.880;2023-03-18T04:35:53;100636.76;;;5.42;56.76
24336;BME280;33098;52.400;16.880;2023-03-18T04:38:19;100636.65;;;5.43;56.70
24336;BME280;33098;52.400;16.880;2023-03-18T04:40:47;100636.05;;;5.41;56.65
24336;BME280;33098;52.400;16.880;2023-03-18T04:43:14;100628.75;;;5.43;56.69
24336;BME280;33098;52.400;16.880;2023-03-18T04:45:41;100629.31;;;5.43;56.56
24336;BME280;33098;52.400;16.880;2023-03-18T04:48:09;100630.64;;;5.40;56.66
24336;BME280;33098;52.400;16.880;2023-03-18T04:50:38;100631.04;;;5.43;56.72
24336;BME280;33098;52.400;16.880;2023-03-18T04:53:07;100632.50;;;5.49;56.74
24336;BME280;33098;52.400;16.880;2023-03-18T04:55:34;100631.43;;;5.55;56.70
24336;BME280;33098;52.400;16.880;2023-03-18T04:58:01;100626.40;;;5.57;56.62
24336;BME280;33098;52.400;16.880;2023-03-18T05:00:28;100626.43;;;5.53;56.44
24336;BME280;33098;52.400;16.880;2023-03-18T05:03:02;100621.73;;;5.52;56.43
24336;BME280;33098;52.400;16.880;2023-03-18T05:05:29;100628.77;;;5.52;56.45
24336;BME280;33098;52.400;16.880;2023-03-18T05:07:57;100630.75;;;5.51;56.39
24336;BME280;33098;52.400;16.880;2023-03-18T05:10:24;100636.48;;;5.50;56.43
24336;BME280;33098;52.400;16.880;2023-03-18T05:12:51;100639.48;;;5.50;56.50
24336;BME280;33098;52.400;16.880;2023-03-18T05:15:21;100642.89;;;5.52;56.66
24336;BME280;33098;52.400;16.880;2023-03-18T05:17:52;100644.91;;;5.50;56.39
24336;BME280;33098;52.400;16.880;2023-03-18T05:20:19;100644.96;;;5.49;56.51
24336;BME280;33098;52.400;16.880;2023-03-18T05:22:46;100642.83;;;5.50;56.55
24336;BME280;33098;52.400;16.880;2023-03-18T05:25:16;100641.63;;;5.52;56.62
24336;BME280;33098;52.400;16.880;2023-03-18T05:27:44;100633.85;;;5.53;56.49
24336;BME280;33098;52.400;16.880;2023-03-18T05:30:18;100632.22;;;5.57;56.67
24336;BME280;33098;52.400;16.880;2023-03-18T05:32:48;100633.26;;;5.61;56.69
24336;BME280;33098;52.400;16.880;2023-03-18T05:35:16;100632.02;;;5.64;56.63
24336;BME280;33098;52.400;16.880;2023-03-18T05:37:48;100630.95;;;5.67;56.67
24336;BME280;33098;52.400;16.880;2023-03-18T05:40:15;100627.98;;;5.66;56.49
24336;BME280;33098;52.400;16.880;2023-03-18T05:42:44;100628.95;;;5.68;56.47
24336;BME280;33098;52.400;16.880;2023-03-18T05:45:11;100632.40;;;5.73;56.60
24336;BME280;33098;52.400;16.880;2023-03-18T05:47:45;100636.09;;;5.73;56.50
24336;BME280;33098;52.400;16.880;2023-03-18T05:50:12;100626.83;;;5.75;56.48
24336;BME280;33098;52.400;16.880;2023-03-18T05:52:40;100624.37;;;5.75;56.34
24336;BME280;33098;52.400;16.880;2023-03-18T05:55:11;100623.88;;;5.71;56.43
24336;BME280;33098;52.400;16.880;2023-03-18T05:57:38;100617.95;;;5.70;56.39
24336;BME280;33098;52.400;16.880;2023-03-18T06:00:08;100621.88;;;5.72;56.49
24336;BME280;33098;52.400;16.880;2023-03-18T06:02:43;100624.09;;;5.70;56.28
24336;BME280;33098;52.400;16.880;2023-03-18T06:05:12;100627.62;;;5.70;56.39
24336;BME280;33098;52.400;16.880;2023-03-18T06:07:39;100625.92;;;5.69;56.39
24336;BME280;33098;52.400;16.880;2023-03-18T06:10:07;100633.48;;;5.72;56.58
24336;BME280;33098;52.400;16.880;2023-03-18T06:12:33;100638.73;;;5.80;56.47
24336;BME280;33098;52.400;16.880;2023-03-18T06:15:01;100633.42;;;5.86;56.67
24336;BME280;33098;52.400;16.880;2023-03-18T06:17:27;100635.67;;;5.87;56.46
24336;BME280;33098;52.400;16.880;2023-03-18T06:19:54;100629.98;;;5.85;56.41
24336;BME280;33098;52.400;16.880;2023-03-18T06:22:22;100635.02;;;5.86;56.57
24336;BME280;33098;52.400;16.880;2023-03-18T06:24:49;100629.71;;;5.90;56.45
24336;BME280;33098;52.400;16.880;2023-03-18T06:27:16;100629.36;;;5.90;56.40
24336;BME280;33098;52.400;16.880;2023-03-18T06:29:43;100629.02;;;5.93;56.46
24336;BME280;33098;52.400;16.880;2023-03-18T06:32:12;100631.70;;;5.95;56.47
24336;BME280;33098;52.400;16.880;2023-03-18T06:34:39;100632.77;;;5.98;56.45
24336;BME280;33098;52.400;16.880;2023-03-18T06:37:06;100637.24;;;6.00;56.49
24336;BME280;33098;52.400;16.880;2023-03-18T06:39:34;100643.02;;;6.04;56.41
24336;BME280;33098;52.400;16.880;2023-03-18T06:42:02;100649.35;;;6.08;56.42
24336;BME280;33098;52.400;16.880;2023-03-18T06:44:36;100646.80;;;6.09;56.47
24336;BME280;33098;52.400;16.880;2023-03-18T06:47:13;100643.35;;;6.14;56.46
24336;BME280;33098;52.400;16.880;2023-03-18T06:49:44;100640.71;;;6.17;56.43
24336;BME280;33098;52.400;16.880;2023-03-18T06:52:15;100645.13;;;6.24;56.53
24336;BME280;33098;52.400;16.880;2023-03-18T06:54:44;100639.69;;;6.29;56.40
24336;BME280;33098;52.400;16.880;2023-03-18T06:57:11;100637.43;;;6.34;56.49
24336;BME280;33098;52.400;16.880;2023-03-18T06:59:39;100636.32;;;6.45;56.46
24336;BME280;33098;52.400;16.880;2023-03-18T07:02:08;100640.46;;;6.47;56.37
24336;BME280;33098;52.400;16.880;2023-03-18T07:04:34;100645.14;;;6.45;56.23
24336;BME280;33098;52.400;16.880;2023-03-18T07:07:01;100645.71;;;6.44;56.21
24336;BME280;33098;52.400;16.880;2023-03-18T07:09:27;100648.46;;;6.48;56.22
24336;BME280;33098;52.400;16.880;2023-03-18T07:11:56;100651.20;;;6.52;56.18
24336;BME280;33098;52.400;16.880;2023-03-18T07:14:24;100647.14;;;6.56;56.05
24336;BME280;33098;52.400;16.880;2023-03-18T07:16:50;100651.71;;;6.56;56.07
24336;BME280;33098;52.400;16.880;2023-03-18T07:19:17;100651.13;;;6.60;56.08
24336;BME280;33098;52.400;16.880;2023-03-18T07:21:44;100652.73;;;6.65;56.15
24336;BME280;33098;52.400;16.880;2023-03-18T07:24:11;100653.20;;;6.76;56.16
24336;BME280;33098;52.400;16.880;2023-03-18T07:26:40;100647.95;;;6.84;56.15
24336;BME280;33098;52.400;16.880;2023-03-18T07:29:08;100650.73;;;6.91;56.08
24336;BME280;33098;52.400;16.880;2023-03-18T07:31:35;100649.49;;;6.93;55.94
24336;BME280;33098;52.400;16.880;2023-03-18T07:34:02;100650.27;;;6.98;55.98
24336;BME280;33098;52.400;16.880;2023-03-18T07:36:30;100650.66;;;7.03;55.87
24336;BME280;33098;52.400;16.880;2023-03-18T07:38:57;100648.05;;;7.12;55.91
24336;BME280;33098;52.400;16.880;2023-03-18T07:41:25;100646.35;;;7.17;55.76
24336;BME280;33098;52.400;16.880;2023-03-18T07:43:51;100648.10;;;7.25;55.74
24336;BME280;33098;52.400;16.880;2023-03-18T07:46:18;100648.10;;;7.28;55.74
24336;BME280;33098;52.400;16.880;2023-03-18T07:48:45;100653.02;;;7.37;55.72
24336;BME280;33098;52.400;16.880;2023-03-18T07:51:11;100652.27;;;7.41;55.40
24336;BME280;33098;52.400;16.880;2023-03-18T07:53:38;100660.86;;;7.45;55.52
24336;BME280;33098;52.400;16.880;2023-03-18T07:56:05;100661.94;;;7.56;55.55
24336;BME280;33098;52.400;16.880;2023-03-18T07:58:33;100669.73;;;7.70;55.32
24336;BME280;33098;52.400;16.880;2023-03-18T08:00:59;100663.73;;;7.73;55.06
24336;BME280;33098;52.400;16.880;2023-03-18T08:03:26;100668.05;;;7.80;55.14
24336;BME280;33098;52.400;16.880;2023-03-18T08:05:53;100672.42;;;7.92;55.05
24336;BME280;33098;52.400;16.880;2023-03-18T08:08:19;100667.66;;;7.97;54.82
24336;BME280;33098;52.400;16.880;2023-03-18T08:10:46;100666.13;;;8.05;54.75
24336;BME280;33098;52.400;16.880;2023-03-18T08:13:13;100665.33;;;8.14;54.51
24336;BME280;33098;52.400;16.880;2023-03-18T08:15:39;100668.83;;;8.26;54.77
24336;BME280;33098;52.400;16.880;2023-03-18T08:18:06;100670.69;;;8.38;54.48
24336;BME280;33098;52.400;16.880;2023-03-18T08:20:33;100670.04;;;8.45;54.26
24336;BME280;33098;52.400;16.880;2023-03-18T08:23:00;100670.27;;;8.55;54.25
24336;BME280;33098;52.400;16.880;2023-03-18T08:25:26;100671.39;;;8.65;54.30
24336;BME280;33098;52.400;16.880;2023-03-18T08:27:52;100665.27;;;8.80;54.31
24336;BME280;33098;52.400;16.880;2023-03-18T08:30:19;100668.23;;;8.91;53.59
24336;BME280;33098;52.400;16.880;2023-03-18T08:32:45;100667.67;;;8.96;53.67
24336;BME280;33098;52.400;16.880;2023-03-18T08:35:12;100668.55;;;9.07;53.81
24336;BME280;33098;52.400;16.880;2023-03-18T08:37:38;100669.92;;;9.18;53.76
24336;BME280;33098;52.400;16.880;2023-03-18T08:40:05;100668.49;;;9.21;52.76
24336;BME280;33098;52.400;16.880;2023-03-18T08:42:31;100665.45;;;9.26;53.07
24336;BME280;33098;52.400;16.880;2023-03-18T08:44:58;100660.54;;;9.31;52.61
24336;BME280;33098;52.400;16.880;2023-03-18T08:47:24;100663.42;;;9.35;52.84
24336;BME280;33098;52.400;16.880;2023-03-18T08:49:51;100661.55;;;9.47;52.93
24336;BME280;33098;52.400;16.880;2023-03-18T08:52:18;100661.33;;;9.55;52.77
24336;BME280;33098;52.400;16.880;2023-03-18T08:54:45;100663.63;;;9.60;52.52
24336;BME280;33098;52.400;16.880;2023-03-18T08:57:11;100662.21;;;9.68;52.72
24336;BME280;33098;52.400;16.880;2023-03-18T08:59:37;100663.75;;;9.74;52.10
24336;BME280;33098;52.400;16.880;2023-03-18T09:02:04;100670.08;;;9.74;51.86
24336;BME280;33098;52.400;16.880;2023-03-18T09:04:30;100666.29;;;9.71;51.26
24336;BME280;33098;52.400;16.880;2023-03-18T09:06:57;100668.08;;;9.70;51.59
24336;BME280;33098;52.400;16.880;2023-03-18T09:09:26;100665.41;;;9.78;51.58
24336;BME280;33098;52.400;16.880;2023-03-18T09:11:52;100668.05;;;9.90;52.11
24336;BME280;33098;52.400;16.880;2023-03-18T09:14:19;100667.94;;;10.07;52.20
24336;BME280;33098;52.400;16.880;2023-03-18T09:16:46;100666.00;;;10.23;52.22
24336;BME280;33098;52.400;16.880;2023-03-18T09:19:12;100664.23;;;10.33;52.02
24336;BME280;33098;52.400;16.880;2023-03-18T09:21:39;100662.88;;;10.45;51.91
24336;BME280;33098;52.400;16.880;2023-03-18T09:24:05;100660.58;;;10.47;50.89
24336;BME280;33098;52.400;16.880;2023-03-18T09:26:31;100661.11;;;10.49;51.26
24336;BME280;33098;52.400;16.880;2023-03-18T09:28:58;100661.33;;;10.56;51.22
24336;BME280;33098;52.400;16.880;2023-03-18T09:31:24;100663.13;;;10.62;50.52
24336;BME280;33098;52.400;16.880;2023-03-18T09:33:52;100664.81;;;10.69;51.16
24336;BME280;33098;52.400;16.880;2023-03-18T09:36:18;100663.05;;;10.78;50.48
24336;BME280;33098;52.400;16.880;2023-03-18T09:38:45;100658.77;;;10.81;50.41
24336;BME280;33098;52.400;16.880;2023-03-18T09:41:17;100658.64;;;10.94;51.04
24336;BME280;33098;52.400;16.880;2023-03-18T09:43:52;100663.74;;;11.09;50.83
24336;BME280;33098;52.400;16.880;2023-03-18T09:49:09;100665.67;;;11.29;51.00
24336;BME280;33098;52.400;16.880;2023-03-18T09:51:49;100659.65;;;11.38;50.84
24336;BME280;33098;52.400;16.880;2023-03-18T09:54:25;100662.05;;;11.53;50.82
24336;BME280;33098;52.400;16.880;2023-03-18T09:56:55;100660.17;;;11.61;50.39
24336;BME280;33098;52.400;16.880;2023-03-18T09:59:29;100662.16;;;11.68;50.47
24336;BME280;33098;52.400;16.880;2023-03-18T10:02:02;100656.73;;;11.73;50.02
24336;BME280;33098;52.400;16.880;2023-03-18T10:04:41;100654.45;;;11.77;50.36
24336;BME280;33098;52.400;16.880;2023-03-18T10:07:11;100651.95;;;11.88;50.32
24336;BME280;33098;52.400;16.880;2023-03-18T10:09:43;100660.58;;;11.99;50.36
24336;BME280;33098;52.400;16.880;2023-03-18T10:12:27;100659.29;;;12.06;50.17
24336;BME280;33098;52.400;16.880;2023-03-18T10:15:00;100658.55;;;12.04;49.57
24336;BME280;33098;52.400;16.880;2023-03-18T10:17:39;100655.80;;;12.05;49.70
24336;BME280;33098;52.400;16.880;2023-03-18T10:20:13;100658.15;;;12.05;49.03
24336;BME280;33098;52.400;16.880;2023-03-18T10:27:59;100647.07;;;12.08;49.81
24336;BME280;33098;52.400;16.880;2023-03-18T10:33:28;100644.48;;;12.26;49.32
24336;BME280;33098;52.400;16.880;2023-03-18T10:38:33;100640.26;;;12.34;49.17
24336;BME280;33098;52.400;16.880;2023-03-18T10:41:01;100638.80;;;12.35;49.20
24336;BME280;33098;52.400;16.880;2023-03-18T10:43:33;100634.25;;;12.42;49.44
24336;BME280;33098;52.400;16.880;2023-03-18T10:46:01;100636.85;;;12.56;49.69
24336;BME280;33098;52.400;16.880;2023-03-18T10:48:32;100629.22;;;12.66;49.33
24336;BME280;33098;52.400;16.880;2023-03-18T10:53:35;100627.00;;;12.86;49.47
24336;BME280;33098;52.400;16.880;2023-03-18T10:58:31;100631.91;;;13.00;49.37
24336;BME280;33098;52.400;16.880;2023-03-18T11:00:58;100628.84;;;13.06;49.52
24336;BME280;33098;52.400;16.880;2023-03-18T11:05:51;100630.80;;;13.09;48.76
24336;BME280;33098;52.400;16.880;2023-03-18T11:08:27;100629.19;;;13.13;48.86
24336;BME280;33098;52.400;16.880;2023-03-18T11:10:57;100625.09;;;13.19;48.95
24336;BME280;33098;52.400;16.880;2023-03-18T11:13:27;100621.25;;;13.24;48.79
24336;BME280;33098;52.400;16.880;2023-03-18T11:15:54;100621.16;;;13.30;48.98
24336;BME280;33098;52.400;16.880;2023-03-18T11:18:22;100624.27;;;13.35;48.90
24336;BME280;33098;52.400;16.880;2023-03-18T11:20:56;100624.87;;;13.40;48.60
24336;BME280;33098;52.400;16.880;2023-03-18T11:23:35;100622.28;;;13.40;48.20
24336;BME280;33098;52.400;16.880;2023-03-18T11:26:19;100620.54;;;13.47;48.13
24336;BME280;33098;52.400;16.880;2023-03-18T11:28:46;100622.45;;;13.58;48.43
24336;BME280;33098;52.400;16.880;2023-03-18T11:31:16;100621.21;;;13.76;48.48
24336;BME280;33098;52.400;16.880;2023-03-18T11:33:45;100619.21;;;13.95;48.21
24336;BME280;33098;52.400;16.880;2023-03-18T11:36:12;100620.28;;;14.08;47.81
24336;BME280;33098;52.400;16.880;2023-03-18T11:38:41;100618.81;;;14.15;47.70
24336;BME280;33098;52.400;16.880;2023-03-18T11:41:12;100622.42;;;14.22;47.90
24336;BME280;33098;52.400;16.880;2023-03-18T11:43:52;100624.40;;;14.36;47.86
24336;BME280;33098;52.400;16.880;2023-03-18T11:46:20;100624.45;;;14.43;47.72
24336;BME280;33098;52.400;16.880;2023-03-18T11:48:47;100626.36;;;14.53;47.82
24336;BME280;33098;52.400;16.880;2023-03-18T11:56:39;100624.29;;;14.99;47.68
24336;BME280;33098;52.400;16.880;2023-03-18T12:04:35;100617.98;;;15.61;47.48
24336;BME280;33098;52.400;16.880;2023-03-18T12:07:11;100627.67;;;15.81;46.56
24336;BME280;33098;52.400;16.880;2023-03-18T12:23:10;100627.98;;;16.73;45.03
24336;BME280;33098;52.400;16.880;2023-03-18T12:28:23;100627.18;;;16.98;44.78
24336;BME280;33098;52.400;16.880;2023-03-18T12:31:39;100629.00;;;16.98;44.59
24336;BME280;33098;52.400;16.880;2023-03-18T12:44:06;100630.57;;;16.77;43.54
24336;BME280;33098;52.400;16.880;2023-03-18T12:46:41;100630.98;;;16.80;44.21
24336;BME280;33098;52.400;16.880;2023-03-18T12:49:16;100630.75;;;16.84;42.47
24336;BME280;33098;52.400;16.880;2023-03-18T12:51:49;100629.19;;;16.96;43.85
24336;BME280;33098;52.400;16.880;2023-03-18T12:54:20;100633.27;;;17.26;43.48
24336;BME280;33098;52.400;16.880;2023-03-18T12:56:48;100625.34;;;17.42;43.37
24336;BME280;33098;52.400;16.880;2023-03-18T12:59:37;100618.02;;;17.56;43.50
24336;BME280;33098;52.400;16.880;2023-03-18T13:02:14;100619.64;;;17.66;42.83
24336;BME280;33098;52.400;16.880;2023-03-18T13:04:48;100622.52;;;17.73;43.71
24336;BME280;33098;52.400;16.880;2023-03-18T13:07:18;100621.23;;;17.80;43.67
24336;BME280;33098;52.400;16.880;2023-03-18T13:09:53;100621.02;;;17.80;43.49
24336;BME280;33098;52.400;16.880;2023-03-18T13:12:23;100618.88;;;17.59;42.57
24336;BME280;33098;52.400;16.880;2023-03-18T13:17:26;100620.45;;;17.37;43.72
24336;BME280;33098;52.400;16.880;2023-03-18T13:19:56;100624.33;;;17.42;44.08
24336;BME280;33098;52.400;16.880;2023-03-18T13:25:26;100624.63;;;17.16;43.58
24336;BME280;33098;52.400;16.880;2023-03-18T13:30:17;100614.76;;;16.88;43.57
24336;BME280;33098;52.400;16.880;2023-03-18T13:35:41;100616.50;;;16.80;44.20
24336;BME280;33098;52.400;16.880;2023-03-18T13:38:17;100621.38;;;16.88;44.48
24336;BME280;33098;52.400;16.880;2023-03-18T13:43:36;100624.11;;;16.60;43.79
24336;BME280;33098;52.400;16.880;2023-03-18T13:46:03;100624.78;;;16.49;43.58
24336;BME280;33098;52.400;16.880;2023-03-18T13:48:31;100620.48;;;16.45;43.76
24336;BME280;33098;52.400;16.880;2023-03-18T13:50:59;100626.40;;;16.38;43.10
24336;BME280;33098;52.400;16.880;2023-03-18T13:53:39;100626.52;;;16.34;43.33
24336;BME280;33098;52.400;16.880;2023-03-18T13:56:24;100625.71;;;16.33;43.32
24336;BME280;33098;52.400;16.880;2023-03-18T13:58:52;100628.84;;;16.34;43.40
24336;BME280;33098;52.400;16.880;2023-03-18T14:13:42;100621.05;;;16.54;43.96
24336;BME280;33098;52.400;16.880;2023-03-18T14:16:10;100619.86;;;16.61;44.00
24336;BME280;33098;52.400;16.880;2023-03-18T14:18:37;100621.63;;;16.66;44.10
24336;BME280;33098;52.400;16.880;2023-03-18T14:21:04;100625.20;;;16.65;43.76
24336;BME280;33098;52.400;16.880;2023-03-18T14:23:42;100621.94;;;16.51;43.57